Time;durP1;ratioP1;P1;durP2;ratioP2;P2;SDS_P1;SDS_P2;PMS_P1;PMS_P2;Temp;Humidity;BMP_temperature;BMP_pressure;BME280_temperature;BME280_humidity;BME280_pressure;Samples;Min_cycle;Max_cycle;Signal;HPM_P1;HPM_P2
2023/06/11 04:02:56;;;;;;;6.90;6.00;;;19.20;99.90;;;;;;4976639;28;20082;-71
2023/06/11 04:05:22;;;;;;;7.03;5.55;;;19.20;99.90;;;;;;4990582;28;20062;-70
2023/06/11 04:07:47;;;;;;;6.68;6.05;;;19.20;99.90;;;;;;4960560;28;20383;-70
2023/06/11 04:10:14;;;;;;;6.60;5.90;;;19.20;99.90;;;;;;4975427;28;20027;-70
2023/06/11 04:12:39;;;;;;;;;;;19.20;99.90;;;;;;4974438;28;20030;-70
2023/06/11 04:15:06;;;;;;;7.40;6.63;;;19.20;99.90;;;;;;5032047;23;19928;-68
2023/06/11 04:17:31;;;;;;;;;;;19.20;99.90;;;;;;5016452;28;20092;-68
2023/06/11 04:19:57;;;;;;;8.40;5.80;;;19.20;99.90;;;;;;5016200;28;19983;-69
2023/06/11 04:22:22;;;;;;;6.75;5.90;;;19.20;99.90;;;;;;5033160;28;20026;-68
2023/06/11 04:24:48;;;;;;;6.85;5.75;;;19.10;99.90;;;;;;5033987;28;20026;-68
2023/06/11 04:27:13;;;;;;;9.27;6.20;;;19.20;99.90;;;;;;5034365;28;20103;-68
2023/06/11 04:29:39;;;;;;;7.13;5.75;;;19.10;99.90;;;;;;5031062;28;20099;-68
2023/06/11 04:32:04;;;;;;;7.72;5.88;;;19.10;99.90;;;;;;5035618;28;20048;-68
2023/06/11 04:34:30;;;;;;;6.70;6.00;;;19.20;99.90;;;;;;5035560;28;20088;-68
2023/06/11 04:36:57;;;;;;;8.98;5.93;;;19.20;99.90;;;;;;5021737;28;20424;-68
2023/06/11 04:39:23;;;;;;;7.93;5.88;;;19.10;99.90;;;;;;5020751;28;20041;-68
2023/06/11 04:41:51;;;;;;;8.50;5.60;;;19.20;99.90;;;;;;5028762;28;20389;-68
2023/06/11 04:44:20;;;;;;;5.97;5.47;;;19.30;99.90;;;;;;5034195;28;20095;-68
2023/06/11 04:46:46;;;;;;;8.00;5.65;;;19.40;99.90;;;;;;5033626;28;20021;-68
2023/06/11 04:49:14;;;;;;;6.97;5.85;;;19.40;99.90;;;;;;5031423;28;20098;-68
2023/06/11 04:51:40;;;;;;;6.20;5.60;;;19.50;99.90;;;;;;5014510;28;20022;-68
2023/06/11 04:54:07;;;;;;;7.32;5.95;;;19.50;99.90;;;;;;5014095;28;20022;-68
2023/06/11 04:56:36;;;;;;;8.30;6.13;;;19.50;99.90;;;;;;5013203;28;20073;-68
2023/06/11 04:59:03;;;;;;;7.15;5.90;;;19.60;99.90;;;;;;5004199;28;20035;-67
2023/06/11 05:01:30;;;;;;;6.38;5.70;;;19.70;99.90;;;;;;5006581;28;20364;-67
2023/06/11 05:03:56;;;;;;;8.38;6.15;;;19.70;99.90;;;;;;4995702;28;20026;-69
2023/06/11 05:06:23;;;;;;;7.60;5.43;;;19.70;99.90;;;;;;5012589;28;20038;-69
2023/06/11 05:08:50;;;;;;;7.13;5.63;;;19.80;99.90;;;;;;5016160;28;20030;-69
2023/06/11 05:11:16;;;;;;;8.90;6.45;;;19.80;99.90;;;;;;5016901;28;20459;-67
2023/06/11 05:13:42;;;;;;;;;;;19.90;99.90;;;;;;5035005;28;20052;-67
2023/06/11 05:16:08;;;;;;;5.72;5.13;;;20.00;99.90;;;;;;5035033;28;19901;-68
2023/06/11 05:18:34;;;;;;;6.32;5.57;;;20.00;99.90;;;;;;5024311;28;20034;-68
2023/06/11 05:21:00;;;;;;;;;;;20.10;99.90;;;;;;5023092;28;20423;-67
2023/06/11 05:23:29;;;;;;;6.45;5.78;;;20.10;99.90;;;;;;5014676;28;20000;-67
2023/06/11 05:26:01;;;;;;;6.68;5.15;;;20.10;99.90;;;;;;5000998;28;20028;-69
2023/06/11 05:28:27;;;;;;;7.20;5.85;;;20.20;99.90;;;;;;5016522;28;20054;-68
2023/06/11 05:30:53;;;;;;;7.60;5.53;;;20.40;99.90;;;;;;5024493;28;20041;-68
2023/06/11 05:33:18;;;;;;;5.95;5.15;;;20.40;99.90;;;;;;5014686;28;20136;-68
2023/06/11 05:35:44;;;;;;;6.43;5.78;;;20.40;99.90;;;;;;5006272;28;20058;-67
2023/06/11 05:38:10;;;;;;;6.47;5.28;;;20.50;99.90;;;;;;5007156;28;20497;-67
2023/06/11 05:40:36;;;;;;;;;;;20.60;99.90;;;;;;5009733;28;20117;-67
2023/06/11 05:43:05;;;;;;;9.18;5.78;;;20.60;99.90;;;;;;5007623;28;20000;-71
2023/06/11 05:45:32;;;;;;;8.35;5.30;;;20.70;99.90;;;;;;5013314;28;20025;-69
2023/06/11 05:47:58;;;;;;;6.38;5.32;;;20.80;99.90;;;;;;5013967;28;20386;-70
2023/06/11 05:50:24;;;;;;;5.63;5.05;;;20.80;99.90;;;;;;5020650;28;20029;-70
2023/06/11 05:52:49;;;;;;;7.82;5.53;;;20.80;99.90;;;;;;5033954;28;20028;-70
2023/06/11 05:55:15;;;;;;;6.90;5.20;;;20.80;99.90;;;;;;5033889;28;20025;-71
2023/06/11 05:57:41;;;;;;;6.80;5.65;;;20.90;99.90;;;;;;5033961;28;20033;-70
2023/06/11 06:00:10;;;;;;;5.60;4.95;;;20.90;99.90;;;;;;5013283;28;20049;-70
2023/06/11 06:02:36;;;;;;;6.13;5.53;;;20.90;99.90;;;;;;5009146;28;20065;-70
2023/06/11 06:05:02;;;;;;;5.90;5.30;;;21.00;99.90;;;;;;5015014;28;20044;-70
2023/06/11 06:07:27;;;;;;;7.57;5.65;;;21.10;99.90;;;;;;5012182;28;20029;-70
2023/06/11 06:09:53;;;;;;;6.07;5.40;;;21.10;99.90;;;;;;5014299;28;20442;-72
2023/06/11 06:12:18;;;;;;;5.70;5.15;;;21.20;99.90;;;;;;5014193;28;20470;-69
2023/06/11 06:14:44;;;;;;;7.28;5.75;;;21.30;99.90;;;;;;5014597;28;20061;-71
2023/06/11 06:17:09;;;;;;;7.22;5.35;;;21.40;99.90;;;;;;5014290;28;20026;-69
2023/06/11 06:19:35;;;;;;;7.75;5.50;;;21.40;99.90;;;;;;5012832;28;20446;-70
2023/06/11 06:22:00;;;;;;;8.40;5.97;;;21.50;99.90;;;;;;5019121;28;20644;-69
2023/06/11 06:24:26;;;;;;;6.18;5.57;;;21.60;99.90;;;;;;5034255;28;20029;-70
2023/06/11 06:26:56;;;;;;;8.50;5.50;;;21.70;99.90;;;;;;5032186;28;20030;-69
2023/06/11 06:29:25;;;;;;;7.63;5.43;;;21.80;99.90;;;;;;5016507;28;20095;-69
2023/06/11 06:31:51;;;;;;;6.15;5.55;;;21.80;99.90;;;;;;5014022;28;20475;-69
2023/06/11 06:34:17;;;;;;;6.15;5.10;;;21.80;99.90;;;;;;5014759;28;20041;-69
2023/06/11 06:36:42;;;;;;;5.68;4.90;;;22.00;99.90;;;;;;5013981;28;20045;-68
2023/06/11 06:39:09;;;;;;;;;;;22.10;99.90;;;;;;5014037;28;20029;-69
2023/06/11 06:41:34;;;;;;;6.40;5.70;;;22.20;99.90;;;;;;5013930;28;19992;-69
2023/06/11 06:44:00;;;;;;;6.65;5.20;;;22.30;99.90;;;;;;5009956;28;20502;-70
2023/06/11 06:46:26;;;;;;;;;;;22.30;99.90;;;;;;5009614;28;20026;-69
2023/06/11 06:48:51;;;;;;;5.18;4.65;;;22.50;99.90;;;;;;4994469;28;19917;-69
2023/06/11 06:51:20;;;;;;;5.82;4.95;;;22.50;99.90;;;;;;5003266;28;20037;-69
2023/06/11 06:53:47;;;;;;;5.60;4.93;;;22.60;99.90;;;;;;5025301;28;20393;-68
2023/06/11 06:56:13;;;;;;;5.65;5.07;;;22.70;99.90;;;;;;5014205;28;20022;-69
2023/06/11 06:58:38;;;;;;;5.25;4.72;;;22.80;99.90;;;;;;5013822;28;20034;-69
2023/06/11 07:01:04;;;;;;;6.78;5.40;;;22.90;99.90;;;;;;5016183;28;20026;-69
2023/06/11 07:03:30;;;;;;;;;;;23.10;99.90;;;;;;5016432;28;20032;-70
2023/06/11 07:05:55;;;;;;;5.50;4.85;;;23.10;99.90;;;;;;5031752;28;19952;-70
2023/06/11 07:08:21;;;;;;;;;;;23.10;99.90;;;;;;5036540;28;20029;-70
2023/06/11 07:10:53;;;;;;;6.10;5.10;;;23.30;99.90;;;;;;5035840;28;19905;-69
2023/06/11 07:13:20;;;;;;;6.78;5.07;;;23.40;99.90;;;;;;4998327;28;20060;-69
2023/06/11 07:15:46;;;;;;;5.85;4.95;;;23.40;99.90;;;;;;5001988;28;20106;-69
2023/06/11 07:18:11;;;;;;;5.57;4.82;;;23.50;99.90;;;;;;5016404;28;20037;-68
2023/06/11 07:20:37;;;;;;;;;;;23.50;99.90;;;;;;5027217;28;20088;-70
2023/06/11 07:23:02;;;;;;;5.28;4.80;;;23.60;99.90;;;;;;5019441;28;20484;-69
2023/06/11 07:25:28;;;;;;;;;;;23.70;99.90;;;;;;5015385;28;20030;-70
2023/06/11 07:28:01;;;;;;;5.50;5.00;;;23.80;99.90;;;;;;5017461;28;20006;-69
2023/06/11 07:30:31;;;;;;;8.52;5.25;;;23.90;99.90;;;;;;5015735;28;20030;-69
2023/06/11 07:32:57;;;;;;;5.43;5.00;;;24.00;99.90;;;;;;5039575;28;20486;-69
2023/06/11 07:35:23;;;;;;;;;;;24.10;99.90;;;;;;5020388;28;20092;-69
2023/06/11 07:37:49;;;;;;;6.55;5.03;;;24.20;99.90;;;;;;5014052;28;19916;-69
2023/06/11 07:40:15;;;;;;;;;;;24.30;99.90;;;;;;5022555;28;20037;-70
2023/06/11 07:42:45;;;;;;;5.57;5.07;;;24.40;99.60;;;;;;5024924;28;19909;-69
2023/06/11 07:45:11;;;;;;;5.90;5.07;;;24.70;99.60;;;;;;5016674;28;20026;-70
2023/06/11 07:47:37;;;;;;;7.07;4.90;;;25.80;98.00;;;;;;5034261;28;20018;-70
2023/06/11 07:50:03;;;;;;;5.68;5.18;;;26.80;96.30;;;;;;5035050;28;20095;-67
2023/06/11 07:52:29;;;;;;;6.65;5.93;;;27.00;95.30;;;;;;5025492;28;20030;-67
2023/06/11 07:54:55;;;;;;;7.28;5.28;;;26.70;95.30;;;;;;5029466;28;20501;-71
2023/06/11 07:57:21;;;;;;;5.80;4.97;;;26.20;95.70;;;;;;5020438;28;20509;-71
2023/06/11 07:59:47;;;;;;;6.30;5.00;;;25.90;96.00;;;;;;5016389;28;20022;-73
2023/06/11 08:02:12;;;;;;;6.10;5.00;;;25.70;96.20;;;;;;5015093;28;20493;-72
2023/06/11 08:04:38;;;;;;;5.45;4.90;;;25.60;96.40;;;;;;5014858;28;20026;-67
2023/06/11 08:07:04;;;;;;;6.15;4.97;;;25.80;96.30;;;;;;5029202;28;20022;-69
2023/06/11 08:09:32;;;;;;;5.80;5.22;;;26.90;95.60;;;;;;5035636;28;20022;-69
2023/06/11 08:11:58;;;;;;;5.63;4.88;;;28.90;93.20;;;;;;5035130;28;20163;-69
2023/06/11 08:14:24;;;;;;;5.30;4.80;;;31.10;90.20;;;;;;5035828;28;20087;-71
2023/06/11 08:16:49;;;;;;;5.32;4.47;;;32.00;85.70;;;;;;5035816;28;20155;-69
2023/06/11 08:19:15;;;;;;;5.50;4.40;;;32.50;82.90;;;;;;5035887;28;20076;-70
2023/06/11 08:21:41;;;;;;;5.50;4.40;;;33.10;81.30;;;;;;5035524;28;20393;-74
2023/06/11 08:24:07;;;;;;;6.07;4.00;;;33.40;78.80;;;;;;5020477;28;20501;-71
2023/06/11 08:26:33;;;;;;;5.07;4.20;;;33.80;76.90;;;;;;5014594;28;20022;-70
2023/06/11 08:28:58;;;;;;;4.57;4.15;;;33.60;76.60;;;;;;5008374;28;20025;-71
2023/06/11 08:31:24;;;;;;;6.15;4.25;;;34.40;75.30;;;;;;4996000;28;20521;-72
2023/06/11 08:33:50;;;;;;;4.70;4.20;;;34.50;74.00;;;;;;5028162;28;20504;-71
2023/06/11 08:36:16;;;;;;;5.75;4.20;;;34.90;73.10;;;;;;5035499;28;20034;-70
2023/06/11 08:38:42;;;;;;;5.35;4.50;;;35.60;71.40;;;;;;5023552;28;20108;-72
2023/06/11 08:41:08;;;;;;;5.85;4.03;;;34.80;70.70;;;;;;5014620;28;20022;-70
2023/06/11 08:43:33;;;;;;;4.28;3.88;;;34.30;71.20;;;;;;5015548;28;20026;-72
2023/06/11 08:45:59;;;;;;;6.20;4.68;;;34.40;70.20;;;;;;5021127;28;20022;-68
2023/06/11 08:48:28;;;;;;;4.78;4.00;;;34.10;70.30;;;;;;5015512;28;20056;-69
2023/06/11 08:50:55;;;;;;;4.30;3.80;;;34.20;69.90;;;;;;5009875;28;20149;-67
2023/06/11 08:53:20;;;;;;;5.45;4.00;;;35.00;68.90;;;;;;5023239;28;20045;-66
2023/06/11 08:55:47;;;;;;;5.82;4.25;;;36.00;67.80;;;;;;5023852;28;20391;-69
2023/06/11 08:58:14;;;;;;;3.92;3.60;;;36.70;66.20;;;;;;5031177;28;20022;-68
2023/06/11 09:00:40;;;;;;;4.03;3.72;;;36.90;64.80;;;;;;5022336;28;20037;-68
2023/06/11 09:03:08;;;;;;;5.68;4.10;;;37.00;64.80;;;;;;5025037;28;20051;-68
2023/06/11 09:05:34;;;;;;;5.60;3.80;;;37.10;63.40;;;;;;5029016;28;20054;-68
2023/06/11 09:08:00;;;;;;;4.75;4.20;;;36.10;63.20;;;;;;5028011;28;20045;-68
2023/06/11 09:10:26;;;;;;;4.30;3.90;;;35.60;63.60;;;;;;5020438;28;20033;-68
2023/06/11 09:12:54;;;;;;;4.82;4.13;;;35.30;64.30;;;;;;5022958;28;20048;-68
2023/06/11 09:15:20;;;;;;;4.80;3.75;;;36.20;63.70;;;;;;5018029;28;20033;-68
2023/06/11 09:17:48;;;;;;;5.15;4.30;;;37.00;62.70;;;;;;5014387;28;20038;-68
2023/06/11 09:20:15;;;;;;;4.60;4.20;;;37.50;61.50;;;;;;5031714;28;20553;-68
2023/06/11 09:22:42;;;;;;;4.72;3.60;;;38.20;60.60;;;;;;5012301;28;20087;-68
2023/06/11 09:25:10;;;;;;;5.57;3.92;;;38.40;60.80;;;;;;5013125;28;20486;-69
2023/06/11 09:27:36;;;;;;;5.15;3.90;;;38.40;60.40;;;;;;5019341;28;20152;-69
2023/06/11 09:30:09;;;;;;;4.20;3.80;;;39.00;59.70;;;;;;5022472;28;20043;-69
2023/06/11 09:32:43;;;;;;;3.97;3.67;;;39.70;57.60;;;;;;5021823;28;20026;-69
2023/06/11 09:35:10;;;;;;;3.80;3.50;;;40.00;57.00;;;;;;5010681;28;20109;-68
2023/06/11 09:37:43;;;;;;;4.60;4.13;;;39.50;57.20;;;;;;5012952;28;20022;-69
2023/06/11 09:40:11;;;;;;;5.50;4.45;;;38.70;57.60;;;;;;5017204;28;20498;-70
2023/06/11 09:42:37;;;;;;;5.85;4.13;;;37.90;58.30;;;;;;5005292;28;20037;-70
2023/06/11 09:45:03;;;;;;;4.90;3.63;;;37.20;57.60;;;;;;5029929;28;20380;-70
2023/06/11 09:47:31;;;;;;;5.00;4.15;;;37.60;57.60;;;;;;5016718;28;20029;-71
2023/06/11 09:50:01;;;;;;;6.00;4.10;;;37.90;56.10;;;;;;4996241;28;20041;-70
2023/06/11 09:52:28;;;;;;;5.40;3.83;;;38.60;55.70;;;;;;5009113;28;20505;-69
2023/06/11 09:54:55;;;;;;;4.45;3.80;;;39.00;55.20;;;;;;5026704;28;20410;-68
2023/06/11 09:57:21;;;;;;;5.63;3.75;;;38.50;55.70;;;;;;5009248;28;20438;-70
2023/06/11 09:59:48;;;;;;;4.68;3.85;;;39.20;55.70;;;;;;5033162;28;20029;-68
2023/06/11 10:02:14;;;;;;;4.35;3.95;;;39.00;55.90;;;;;;5033976;28;20036;-69
2023/06/11 10:04:40;;;;;;;4.90;3.90;;;39.10;55.60;;;;;;5017127;28;20030;-68
2023/06/11 10:07:07;;;;;;;7.20;3.78;;;38.20;56.30;;;;;;5014360;28;20014;-67
2023/06/11 10:09:33;;;;;;;5.55;3.90;;;37.20;56.60;;;;;;5014601;28;20347;-68
2023/06/11 10:12:00;;;;;;;7.32;4.07;;;36.90;57.30;;;;;;5014287;28;20040;-67
2023/06/11 10:14:25;;;;;;;4.35;3.85;;;37.10;57.00;;;;;;5023888;28;20095;-68
2023/06/11 10:16:52;;;;;;;7.32;4.88;;;37.70;56.20;;;;;;5020093;28;20230;-67
2023/06/11 10:19:18;;;;;;;10.05;7.15;;;38.50;54.90;;;;;;5014504;28;20064;-69
2023/06/11 10:21:51;;;;;;;8.38;6.30;;;39.00;53.70;;;;;;5014076;28;20030;-68
2023/06/11 10:24:25;;;;;;;4.07;3.75;;;39.20;52.80;;;;;;5015885;28;20459;-72
2023/06/11 10:27:07;;;;;;;3.83;3.45;;;39.80;52.90;;;;;;5014293;28;20033;-72
2023/06/11 10:29:40;;;;;;;8.35;4.22;;;39.50;52.20;;;;;;5013441;28;20024;-73
2023/06/11 10:32:26;;;;;;;5.25;4.30;;;39.80;52.20;;;;;;5012821;28;20022;-73
2023/06/11 10:35:04;;;;;;;5.22;3.90;;;39.50;51.50;;;;;;5013248;28;20053;-70
2023/06/11 10:37:32;;;;;;;4.90;4.38;;;39.50;51.60;;;;;;5013625;28;20026;-68
2023/06/11 10:39:58;;;;;;;4.38;3.97;;;39.70;51.70;;;;;;5018182;28;20060;-70
2023/06/11 10:42:28;;;;;;;6.80;4.32;;;39.60;51.30;;;;;;5031920;28;20029;-69
2023/06/11 10:44:58;;;;;;;3.90;3.50;;;38.90;51.20;;;;;;5033687;28;20141;-69
2023/06/11 10:47:24;;;;;;;7.22;3.78;;;38.60;50.60;;;;;;5031659;28;20013;-69
2023/06/11 10:49:50;;;;;;;6.18;3.80;;;38.70;50.70;;;;;;5013517;28;20024;-69
2023/06/11 10:52:15;;;;;;;4.53;3.78;;;39.20;50.50;;;;;;5014492;28;20390;-70
2023/06/11 10:54:43;;;;;;;4.57;4.15;;;39.60;50.30;;;;;;5014041;28;20029;-69
2023/06/11 10:57:10;;;;;;;4.05;3.60;;;39.30;50.00;;;;;;5028519;28;20068;-70
2023/06/11 10:59:38;;;;;;;4.50;3.45;;;38.80;50.20;;;;;;5033188;28;20078;-69
2023/06/11 11:02:03;;;;;;;4.97;3.38;;;38.50;50.40;;;;;;5030106;28;20040;-70
2023/06/11 11:04:29;;;;;;;4.20;3.38;;;38.70;50.50;;;;;;5031455;28;20025;-69
2023/06/11 11:07:07;;;;;;;5.07;3.80;;;39.10;50.00;;;;;;5033389;28;20079;-69
2023/06/11 11:09:33;;;;;;;4.18;3.53;;;39.00;49.20;;;;;;5032787;28;20049;-69
2023/06/11 11:11:59;;;;;;;4.03;3.47;;;37.70;48.90;;;;;;5031454;28;20021;-69
2023/06/11 11:14:27;;;;;;;3.70;3.20;;;36.10;49.20;;;;;;5031532;28;20037;-69
2023/06/11 11:16:53;;;;;;;3.67;3.20;;;34.60;49.10;;;;;;5032962;28;20151;-69
2023/06/11 11:19:25;;;;;;;4.22;3.13;;;32.90;50.10;;;;;;5032521;28;20104;-69
2023/06/11 11:21:51;;;;;;;6.03;3.63;;;31.90;51.80;;;;;;5032538;28;20025;-69
2023/06/11 11:24:17;;;;;;;4.80;3.65;;;31.50;52.30;;;;;;5015828;28;20084;-71
2023/06/11 11:26:44;;;;;;;7.20;3.80;;;30.80;52.80;;;;;;5026589;28;20034;-71
2023/06/11 11:29:09;;;;;;;4.90;3.40;;;30.60;53.60;;;;;;5030011;28;20026;-70
2023/06/11 11:31:36;;;;;;;6.30;3.85;;;30.30;53.90;;;;;;5016540;28;20122;-70
2023/06/11 11:34:01;;;;;;;6.20;3.90;;;30.30;53.90;;;;;;5030311;28;20087;-70
2023/06/11 11:36:27;;;;;;;4.22;3.80;;;30.10;54.40;;;;;;5020909;28;20457;-72
2023/06/11 11:38:53;;;;;;;5.32;3.58;;;30.00;54.60;;;;;;5027763;28;20101;-72
2023/06/11 11:41:22;;;;;;;4.70;3.30;;;29.90;54.30;;;;;;5016553;28;20033;-70
2023/06/11 11:43:49;;;;;;;6.72;3.80;;;29.80;54.80;;;;;;5020151;28;20026;-72
2023/06/11 11:46:23;;;;;;;5.88;3.90;;;29.90;54.40;;;;;;5021845;28;20079;-68
2023/06/11 11:48:55;;;;;;;3.60;3.15;;;29.90;54.00;;;;;;5020324;28;20026;-68
2023/06/11 11:51:23;;;;;;;6.63;3.80;;;30.00;54.00;;;;;;5014110;28;20029;-70
2023/06/11 11:53:51;;;;;;;4.15;3.50;;;30.00;53.10;;;;;;5015446;28;20433;-70
2023/06/11 11:56:17;;;;;;;5.60;4.10;;;29.90;52.10;;;;;;5016873;28;20372;-71
2023/06/11 11:58:44;;;;;;;6.20;3.83;;;29.80;52.00;;;;;;5019111;28;20036;-72
2023/06/11 12:01:21;;;;;;;5.63;3.40;;;29.70;53.10;;;;;;5014712;28;20117;-70
2023/06/11 12:03:56;;;;;;;5.57;3.63;;;29.60;53.80;;;;;;5036989;28;20380;-72
2023/06/11 12:06:24;;;;;;;4.47;3.28;;;29.50;53.60;;;;;;5011666;28;20034;-71
2023/06/11 12:08:50;;;;;;;5.07;3.67;;;29.60;53.80;;;;;;5007370;28;20045;-70
2023/06/11 12:11:15;;;;;;;5.65;3.47;;;29.50;52.70;;;;;;5001597;28;20479;-71
2023/06/11 12:13:41;;;;;;;4.72;3.40;;;29.40;52.50;;;;;;5014894;28;20042;-68
2023/06/11 12:16:06;;;;;;;5.53;4.10;;;29.40;52.50;;;;;;5026158;28;20036;-67
2023/06/11 12:18:32;;;;;;;4.88;3.60;;;29.60;53.70;;;;;;5009947;28;20030;-68
2023/06/11 12:20:58;;;;;;;6.10;3.72;;;29.60;52.80;;;;;;5007205;28;20034;-67
2023/06/11 12:23:23;;;;;;;4.45;3.30;;;29.60;53.20;;;;;;5016883;28;20052;-67
2023/06/11 12:25:49;;;;;;;5.60;3.67;;;29.50;52.40;;;;;;5016678;28;20025;-67
2023/06/11 12:28:17;;;;;;;5.20;3.88;;;29.50;52.90;;;;;;5015506;28;20072;-68
2023/06/11 12:30:43;;;;;;;5.22;3.85;;;29.40;53.60;;;;;;5015753;28;20022;-69
2023/06/11 12:33:08;;;;;;;7.47;3.30;;;29.50;53.70;;;;;;5016389;28;20402;-69
2023/06/11 12:35:36;;;;;;;5.53;3.83;;;29.40;53.40;;;;;;5016724;28;20527;-69
2023/06/11 12:38:01;;;;;;;5.28;3.88;;;29.50;52.90;;;;;;5015806;28;20022;-70
2023/06/11 12:40:30;;;;;;;4.03;3.58;;;29.60;53.10;;;;;;5026871;28;20385;-70
2023/06/11 12:42:59;;;;;;;4.90;3.53;;;29.70;52.90;;;;;;5035306;28;20032;-70
2023/06/11 12:45:26;;;;;;;6.53;3.70;;;29.80;52.90;;;;;;5016057;28;20390;-69
2023/06/11 12:47:52;;;;;;;6.22;3.85;;;29.80;52.30;;;;;;5017253;28;20117;-69
2023/06/11 12:50:18;;;;;;;6.63;3.63;;;29.60;53.70;;;;;;5015445;28;20059;-69
2023/06/11 12:52:45;;;;;;;5.03;3.50;;;29.70;52.90;;;;;;5015337;28;20018;-70
2023/06/11 12:55:11;;;;;;;4.43;3.33;;;29.90;52.40;;;;;;5015475;28;20022;-69
2023/06/11 12:57:36;;;;;;;5.68;3.33;;;29.90;52.10;;;;;;5015191;28;20345;-70
2023/06/11 13:00:03;;;;;;;7.78;3.42;;;29.90;51.50;;;;;;5015186;28;20022;-70
2023/06/11 13:02:29;;;;;;;4.30;3.30;;;29.90;51.50;;;;;;5015499;28;20445;-69
2023/06/11 13:04:55;;;;;;;4.88;3.50;;;29.90;51.70;;;;;;5027818;28;20104;-71
2023/06/11 13:07:20;;;;;;;7.38;3.53;;;29.80;51.50;;;;;;5029721;28;20478;-69
2023/06/11 13:09:46;;;;;;;5.30;3.40;;;29.80;51.70;;;;;;5015198;28;20148;-70
2023/06/11 13:12:12;;;;;;;4.85;3.90;;;29.80;51.70;;;;;;5015588;28;20129;-69
2023/06/11 13:14:38;;;;;;;6.90;3.80;;;30.00;51.80;;;;;;5010566;28;20499;-69
2023/06/11 13:17:04;;;;;;;6.13;3.50;;;30.00;50.10;;;;;;5017493;28;20424;-69
2023/06/11 13:19:29;;;;;;;4.88;3.42;;;29.90;50.80;;;;;;5021183;28;20487;-69
2023/06/11 13:21:55;;;;;;;6.22;3.45;;;29.70;50.60;;;;;;4993704;28;20038;-69
2023/06/11 13:24:23;;;;;;;4.65;3.55;;;29.70;51.00;;;;;;4995410;28;20023;-69
2023/06/11 13:26:49;;;;;;;5.20;3.60;;;29.90;51.00;;;;;;5015293;28;20045;-69
2023/06/11 13:29:17;;;;;;;6.13;3.78;;;29.90;50.50;;;;;;5033157;28;20075;-71
2023/06/11 13:31:43;;;;;;;4.45;3.60;;;29.90;50.80;;;;;;5034416;28;20029;-69
2023/06/11 13:34:09;;;;;;;4.28;3.40;;;30.00;50.60;;;;;;5028359;28;20026;-69
2023/06/11 13:36:35;;;;;;;6.22;4.10;;;30.10;51.00;;;;;;5022073;28;20038;-70
2023/06/11 13:39:02;;;;;;;6.03;3.83;;;30.10;50.50;;;;;;5016717;28;20069;-70
2023/06/11 13:41:27;;;;;;;5.45;3.58;;;29.90;50.50;;;;;;5016993;28;20037;-71
2023/06/11 13:43:53;;;;;;;5.65;3.85;;;29.90;50.70;;;;;;5015157;28;20030;-70
2023/06/11 13:46:19;;;;;;;5.95;3.75;;;29.90;50.60;;;;;;5015022;28;20080;-71
2023/06/11 13:48:45;;;;;;;5.55;3.60;;;29.90;50.80;;;;;;5015914;28;20014;-70
2023/06/11 13:51:11;;;;;;;6.30;3.63;;;29.90;50.80;;;;;;5014969;28;20056;-71
2023/06/11 13:53:37;;;;;;;4.18;3.40;;;29.90;50.50;;;;;;5014521;28;20045;-70
2023/06/11 13:56:03;;;;;;;5.80;3.40;;;29.90;51.00;;;;;;5021916;28;20029;-70
2023/06/11 13:58:29;;;;;;;5.20;4.20;;;30.00;51.10;;;;;;5034025;28;20072;-68
2023/06/11 14:00:55;;;;;;;7.30;3.80;;;30.00;51.40;;;;;;5034082;28;20025;-69
2023/06/11 14:03:21;;;;;;;4.80;3.85;;;30.00;50.90;;;;;;5034005;28;20037;-69
2023/06/11 14:05:46;;;;;;;5.20;3.80;;;30.00;51.30;;;;;;5032701;28;20067;-69
2023/06/11 14:08:17;;;;;;;6.60;3.70;;;30.00;51.20;;;;;;5033821;28;20075;-70
2023/06/11 14:10:43;;;;;;;4.57;3.83;;;30.10;51.40;;;;;;5033500;28;20014;-69
2023/06/11 14:13:09;;;;;;;5.30;4.18;;;30.20;51.40;;;;;;5033953;28;20029;-68
2023/06/11 14:15:34;;;;;;;6.63;4.32;;;30.20;51.30;;;;;;5026351;28;20030;-69
2023/06/11 14:18:00;;;;;;;4.82;3.80;;;30.10;51.70;;;;;;5015436;28;20514;-69
2023/06/11 14:20:26;;;;;;;5.03;3.58;;;30.20;52.10;;;;;;5014009;28;20030;-69
2023/06/11 14:22:51;;;;;;;5.70;4.20;;;30.10;51.60;;;;;;5014007;28;20065;-69
2023/06/11 14:25:17;;;;;;;6.50;4.30;;;30.10;52.20;;;;;;5013981;28;20475;-70
2023/06/11 14:27:43;;;;;;;4.22;3.83;;;30.20;52.30;;;;;;5015397;28;20026;-69
2023/06/11 14:30:09;;;;;;;4.93;4.18;;;30.20;51.80;;;;;;5014400;28;20183;-69
2023/06/11 14:32:35;;;;;;;5.57;3.90;;;30.20;52.20;;;;;;5014025;28;20048;-69
2023/06/11 14:35:00;;;;;;;4.78;4.10;;;30.10;52.60;;;;;;5013604;28;20144;-68
2023/06/11 14:37:26;;;;;;;4.70;4.18;;;30.00;52.90;;;;;;5013854;28;20135;-69
2023/06/11 14:39:52;;;;;;;5.78;4.47;;;30.00;53.40;;;;;;5014800;28;20057;-69
2023/06/11 14:42:18;;;;;;;5.25;4.30;;;30.10;53.40;;;;;;5023340;28;20053;-68
2023/06/11 14:44:43;;;;;;;11.05;4.20;;;30.20;52.80;;;;;;5031766;28;20107;-68
2023/06/11 14:47:09;;;;;;;6.50;3.90;;;30.10;53.10;;;;;;5033448;28;20024;-68
2023/06/11 14:49:34;;;;;;;6.95;4.70;;;30.00;53.40;;;;;;5029159;28;20022;-70
2023/06/11 14:52:00;;;;;;;5.57;4.05;;;29.90;53.80;;;;;;5013618;28;20018;-71
2023/06/11 14:54:26;;;;;;;5.95;4.40;;;29.90;53.90;;;;;;5014004;28;20451;-71
2023/06/11 14:56:54;;;;;;;6.28;4.22;;;30.00;53.80;;;;;;5013766;28;20061;-69
2023/06/11 14:59:20;;;;;;;4.95;4.00;;;30.00;53.40;;;;;;5027696;28;20037;-69
2023/06/11 15:01:45;;;;;;;6.70;4.38;;;29.90;53.30;;;;;;5033739;28;20049;-70
2023/06/11 15:04:11;;;;;;;7.80;4.65;;;29.90;53.50;;;;;;5031862;28;20018;-70
2023/06/11 15:06:43;;;;;;;7.10;4.30;;;29.90;53.40;;;;;;5021037;28;20026;-71
2023/06/11 15:09:09;;;;;;;5.13;4.22;;;30.00;53.30;;;;;;5006319;28;20030;-69
2023/06/11 15:11:35;;;;;;;5.57;3.95;;;29.90;52.90;;;;;;5003845;28;20471;-70
2023/06/11 15:14:00;;;;;;;7.35;4.55;;;29.90;53.10;;;;;;4993951;28;20035;-70
2023/06/11 15:16:26;;;;;;;5.32;3.83;;;29.90;53.20;;;;;;4993952;28;20030;-71
2023/06/11 15:18:51;;;;;;;5.03;4.28;;;29.90;52.80;;;;;;4993922;28;20431;-70
2023/06/11 15:21:17;;;;;;;6.55;4.30;;;29.90;52.80;;;;;;5016700;28;20160;-68
2023/06/11 15:23:42;;;;;;;4.97;3.85;;;29.90;52.80;;;;;;5026231;28;20075;-69
2023/06/11 15:26:08;;;;;;;5.13;4.63;;;29.90;52.90;;;;;;5026881;28;20026;-69
2023/06/11 15:28:33;;;;;;;5.93;4.35;;;29.80;52.90;;;;;;5010949;28;20501;-68
2023/06/11 15:31:00;;;;;;;6.30;4.07;;;29.90;53.30;;;;;;5005147;28;20537;-68
2023/06/11 15:33:25;;;;;;;7.85;4.45;;;29.90;53.90;;;;;;5007204;28;20026;-70
2023/06/11 15:35:51;;;;;;;4.68;4.13;;;29.90;52.80;;;;;;5002983;28;20478;-68
2023/06/11 15:38:16;;;;;;;8.45;4.38;;;29.90;52.90;;;;;;5017688;28;20030;-70
2023/06/11 15:40:42;;;;;;;7.43;4.70;;;29.80;53.20;;;;;;5014665;28;20113;-67
